sensor_id;sensor_type;location;lat;lon;timestamp;P1;durP1;ratioP1;P2;durP2;ratioP2
16826;SDS011;8530;49.540;8.576;2023-04-02T00:01:05;4.40;;;2.03;;
16826;SDS011;8530;49.540;8.576;2023-04-02T00:04:04;4.10;;;3.17;;
16826;SDS011;8530;49.540;8.576;2023-04-02T00:06:39;4.40;;;2.80;;
16826;SDS011;8530;49.540;8.576;2023-04-02T00:12:12;6.20;;;3.00;;
16826;SDS011;8530;49.540;8.576;2023-04-02T00:14:46;4.90;;;2.80;;
16826;SDS011;8530;49.540;8.576;2023-04-02T00:17:16;7.17;;;2.97;;
16826;SDS011;8530;49.540;8.576;2023-04-02T00:19:44;4.90;;;4.47;;
16826;SDS011;8530;49.540;8.576;2023-04-02T00:22:15;4.80;;;3.27;;
16826;SDS011;8530;49.540;8.576;2023-04-02T00:24:43;8.67;;;4.17;;
16826;SDS011;8530;49.540;8.576;2023-04-02T00:27:10;3.73;;;3.03;;
16826;SDS011;8530;49.540;8.576;2023-04-02T00:29:43;3.77;;;3.33;;
16826;SDS011;8530;49.540;8.576;2023-04-02T00:32:13;3.40;;;3.03;;
16826;SDS011;8530;49.540;8.576;2023-04-02T00:34:45;5.10;;;3.67;;
16826;SDS011;8530;49.540;8.576;2023-04-02T00:37:15;5.50;;;3.23;;
16826;SDS011;8530;49.540;8.576;2023-04-02T00:39:48;3.57;;;3.27;;
16826;SDS011;8530;49.540;8.576;2023-04-02T00:42:16;4.80;;;3.10;;
16826;SDS011;8530;49.540;8.576;2023-04-02T00:44:44;4.13;;;2.77;;
16826;SDS011;8530;49.540;8.576;2023-04-02T00:47:14;6.10;;;3.10;;
16826;SDS011;8530;49.540;8.576;2023-04-02T00:49:44;4.77;;;3.40;;
16826;SDS011;8530;49.540;8.576;2023-04-02T00:52:13;3.73;;;3.10;;
16826;SDS011;8530;49.540;8.576;2023-04-02T00:54:44;4.03;;;2.90;;
16826;SDS011;8530;49.540;8.576;2023-04-02T00:57:16;5.80;;;2.83;;
16826;SDS011;8530;49.540;8.576;2023-04-02T00:59:50;3.17;;;2.80;;
16826;SDS011;8530;49.540;8.576;2023-04-02T01:02:24;6.33;;;3.00;;
16826;SDS011;8530;49.540;8.576;2023-04-02T01:04:54;3.00;;;2.70;;
16826;SDS011;8530;49.540;8.576;2023-04-02T01:07:27;4.70;;;2.70;;
16826;SDS011;8530;49.540;8.576;2023-04-02T01:10:11;6.80;;;2.93;;
16826;SDS011;8530;49.540;8.576;2023-04-02T01:12:51;3.73;;;2.70;;
16826;SDS011;8530;49.540;8.576;2023-04-02T01:15:28;4.97;;;2.70;;
16826;SDS011;8530;49.540;8.576;2023-04-02T01:18:02;7.10;;;3.13;;
16826;SDS011;8530;49.540;8.576;2023-04-02T01:20:59;5.60;;;3.63;;
16826;SDS011;8530;49.540;8.576;2023-04-02T01:23:50;4.03;;;3.33;;
16826;SDS011;8530;49.540;8.576;2023-04-02T01:26:24;8.40;;;4.43;;
16826;SDS011;8530;49.540;8.576;2023-04-02T01:29:02;4.83;;;2.60;;
16826;SDS011;8530;49.540;8.576;2023-04-02T01:31:33;4.60;;;3.10;;
16826;SDS011;8530;49.540;8.576;2023-04-02T01:34:02;4.20;;;3.00;;
16826;SDS011;8530;49.540;8.576;2023-04-02T01:36:34;7.80;;;3.53;;
16826;SDS011;8530;49.540;8.576;2023-04-02T01:39:09;7.43;;;3.60;;
16826;SDS011;8530;49.540;8.576;2023-04-02T01:41:45;3.60;;;2.90;;
16826;SDS011;8530;49.540;8.576;2023-04-02T01:44:19;3.60;;;3.30;;
16826;SDS011;8530;49.540;8.576;2023-04-02T01:46:51;4.93;;;3.00;;
16826;SDS011;8530;49.540;8.576;2023-04-02T01:49:19;3.80;;;3.07;;
16826;SDS011;8530;49.540;8.576;2023-04-02T01:51:49;10.57;;;4.20;;
16826;SDS011;8530;49.540;8.576;2023-04-02T01:54:19;6.77;;;3.30;;
16826;SDS011;8530;49.540;8.576;2023-04-02T01:56:47;4.10;;;3.70;;
16826;SDS011;8530;49.540;8.576;2023-04-02T01:59:15;6.43;;;2.90;;
16826;SDS011;8530;49.540;8.576;2023-04-02T02:01:46;3.70;;;3.40;;
16826;SDS011;8530;49.540;8.576;2023-04-02T02:04:16;8.53;;;2.83;;
16826;SDS011;8530;49.540;8.576;2023-04-02T02:06:44;4.03;;;3.03;;
16826;SDS011;8530;49.540;8.576;2023-04-02T02:09:13;3.90;;;3.50;;
16826;SDS011;8530;49.540;8.576;2023-04-02T02:11:47;3.70;;;3.27;;
16826;SDS011;8530;49.540;8.576;2023-04-02T02:14:16;4.03;;;3.50;;
16826;SDS011;8530;49.540;8.576;2023-04-02T02:16:46;3.60;;;3.30;;
16826;SDS011;8530;49.540;8.576;2023-04-02T02:19:17;3.60;;;3.03;;
16826;SDS011;8530;49.540;8.576;2023-04-02T02:21:49;4.83;;;3.80;;
16826;SDS011;8530;49.540;8.576;2023-04-02T02:24:18;7.40;;;3.60;;
16826;SDS011;8530;49.540;8.576;2023-04-02T02:26:47;4.70;;;3.73;;
16826;SDS011;8530;49.540;8.576;2023-04-02T02:29:18;7.70;;;4.20;;
16826;SDS011;8530;49.540;8.576;2023-04-02T02:31:48;8.97;;;4.00;;
16826;SDS011;8530;49.540;8.576;2023-04-02T02:34:19;4.00;;;3.53;;
16826;SDS011;8530;49.540;8.576;2023-04-02T02:36:55;5.17;;;3.83;;
16826;SDS011;8530;49.540;8.576;2023-04-02T02:39:28;4.87;;;3.10;;
16826;SDS011;8530;49.540;8.576;2023-04-02T02:45:24;4.73;;;3.50;;
16826;SDS011;8530;49.540;8.576;2023-04-02T02:47:54;5.20;;;3.23;;
16826;SDS011;8530;49.540;8.576;2023-04-02T02:50:23;7.43;;;3.40;;
16826;SDS011;8530;49.540;8.576;2023-04-02T02:52:56;5.47;;;2.97;;
16826;SDS011;8530;49.540;8.576;2023-04-02T02:55:25;3.50;;;3.20;;
16826;SDS011;8530;49.540;8.576;2023-04-02T02:57:57;3.63;;;3.23;;
16826;SDS011;8530;49.540;8.576;2023-04-02T03:00:27;3.63;;;3.33;;
16826;SDS011;8530;49.540;8.576;2023-04-02T03:02:55;6.50;;;4.40;;
16826;SDS011;8530;49.540;8.576;2023-04-02T03:05:23;6.33;;;3.57;;
16826;SDS011;8530;49.540;8.576;2023-04-02T03:07:54;4.83;;;4.10;;
16826;SDS011;8530;49.540;8.576;2023-04-02T03:10:22;5.80;;;3.83;;
16826;SDS011;8530;49.540;8.576;2023-04-02T03:12:58;3.87;;;3.50;;
16826;SDS011;8530;49.540;8.576;2023-04-02T03:15:34;5.90;;;3.87;;
16826;SDS011;8530;49.540;8.576;2023-04-02T03:18:07;4.10;;;3.70;;
16826;SDS011;8530;49.540;8.576;2023-04-02T03:20:39;3.93;;;3.40;;
16826;SDS011;8530;49.540;8.576;2023-04-02T03:26:34;5.00;;;3.70;;
16826;SDS011;8530;49.540;8.576;2023-04-02T03:29:07;4.17;;;3.73;;
16826;SDS011;8530;49.540;8.576;2023-04-02T03:31:40;6.67;;;4.30;;
16826;SDS011;8530;49.540;8.576;2023-04-02T03:38:27;7.50;;;4.50;;
16826;SDS011;8530;49.540;8.576;2023-04-02T03:41:00;5.60;;;4.23;;
16826;SDS011;8530;49.540;8.576;2023-04-02T03:43:30;5.77;;;3.97;;
16826;SDS011;8530;49.540;8.576;2023-04-02T03:46:05;7.20;;;5.30;;
16826;SDS011;8530;49.540;8.576;2023-04-02T03:48:40;5.33;;;3.90;;
16826;SDS011;8530;49.540;8.576;2023-04-02T03:51:49;5.47;;;4.13;;
16826;SDS011;8530;49.540;8.576;2023-04-02T03:54:23;5.53;;;4.20;;
16826;SDS011;8530;49.540;8.576;2023-04-02T03:56:50;4.87;;;4.07;;
16826;SDS011;8530;49.540;8.576;2023-04-02T03:59:19;4.90;;;4.40;;
16826;SDS011;8530;49.540;8.576;2023-04-02T04:01:52;4.73;;;4.27;;
16826;SDS011;8530;49.540;8.576;2023-04-02T04:04:22;4.80;;;3.97;;
16826;SDS011;8530;49.540;8.576;2023-04-02T04:06:52;4.83;;;4.33;;
16826;SDS011;8530;49.540;8.576;2023-04-02T04:09:24;6.03;;;4.50;;
16826;SDS011;8530;49.540;8.576;2023-04-02T04:11:58;6.63;;;4.20;;
16826;SDS011;8530;49.540;8.576;2023-04-02T04:14:33;5.90;;;4.53;;
16826;SDS011;8530;49.540;8.576;2023-04-02T04:17:08;4.40;;;4.00;;
16826;SDS011;8530;49.540;8.576;2023-04-02T04:19:42;5.17;;;4.67;;
16826;SDS011;8530;49.540;8.576;2023-04-02T04:22:13;4.07;;;3.70;;
16826;SDS011;8530;49.540;8.576;2023-04-02T04:24:44;12.73;;;4.63;;
16826;SDS011;8530;49.540;8.576;2023-04-02T04:27:14;4.87;;;3.70;;
16826;SDS011;8530;49.540;8.576;2023-04-02T04:29:48;4.93;;;4.33;;
16826;SDS011;8530;49.540;8.576;2023-04-02T04:32:23;6.53;;;4.40;;
16826;SDS011;8530;49.540;8.576;2023-04-02T04:34:57;6.20;;;5.70;;
16826;SDS011;8530;49.540;8.576;2023-04-02T04:37:29;5.40;;;4.27;;
16826;SDS011;8530;49.540;8.576;2023-04-02T04:40:01;4.97;;;4.47;;
16826;SDS011;8530;49.540;8.576;2023-04-02T04:42:32;9.23;;;4.17;;
16826;SDS011;8530;49.540;8.576;2023-04-02T04:45:02;6.80;;;4.33;;
16826;SDS011;8530;49.540;8.576;2023-04-02T04:47:39;5.00;;;4.53;;
16826;SDS011;8530;49.540;8.576;2023-04-02T04:50:12;8.53;;;3.93;;
16826;SDS011;8530;49.540;8.576;2023-04-02T04:52:41;8.63;;;4.03;;
16826;SDS011;8530;49.540;8.576;2023-04-02T04:55:21;5.07;;;4.50;;
16826;SDS011;8530;49.540;8.576;2023-04-02T04:57:54;7.30;;;4.63;;
16826;SDS011;8530;49.540;8.576;2023-04-02T05:00:25;8.00;;;4.97;;
16826;SDS011;8530;49.540;8.576;2023-04-02T05:02:56;7.43;;;5.20;;
16826;SDS011;8530;49.540;8.576;2023-04-02T05:05:29;5.87;;;4.90;;
16826;SDS011;8530;49.540;8.576;2023-04-02T05:07:59;5.70;;;3.90;;
16826;SDS011;8530;49.540;8.576;2023-04-02T05:10:33;5.00;;;4.60;;
16826;SDS011;8530;49.540;8.576;2023-04-02T05:13:06;5.50;;;4.60;;
16826;SDS011;8530;49.540;8.576;2023-04-02T05:15:40;5.93;;;4.30;;
16826;SDS011;8530;49.540;8.576;2023-04-02T05:18:14;6.17;;;4.70;;
16826;SDS011;8530;49.540;8.576;2023-04-02T05:20:48;6.87;;;5.20;;
16826;SDS011;8530;49.540;8.576;2023-04-02T05:23:20;4.83;;;4.43;;
16826;SDS011;8530;49.540;8.576;2023-04-02T05:25:52;5.67;;;5.07;;
16826;SDS011;8530;49.540;8.576;2023-04-02T05:28:24;6.50;;;5.60;;
16826;SDS011;8530;49.540;8.576;2023-04-02T05:30:57;5.37;;;4.87;;
16826;SDS011;8530;49.540;8.576;2023-04-02T05:33:27;6.70;;;5.23;;
16826;SDS011;8530;49.540;8.576;2023-04-02T05:35:56;5.87;;;4.90;;
16826;SDS011;8530;49.540;8.576;2023-04-02T05:38:25;5.13;;;4.73;;
16826;SDS011;8530;49.540;8.576;2023-04-02T05:40:59;10.20;;;5.00;;
16826;SDS011;8530;49.540;8.576;2023-04-02T05:43:29;6.43;;;5.30;;
16826;SDS011;8530;49.540;8.576;2023-04-02T05:46:00;5.53;;;5.00;;
16826;SDS011;8530;49.540;8.576;2023-04-02T05:48:32;6.60;;;5.67;;
16826;SDS011;8530;49.540;8.576;2023-04-02T05:51:04;5.80;;;5.23;;
16826;SDS011;8530;49.540;8.576;2023-04-02T05:53:34;5.83;;;5.23;;
16826;SDS011;8530;49.540;8.576;2023-04-02T05:56:09;6.43;;;5.17;;
16826;SDS011;8530;49.540;8.576;2023-04-02T05:58:41;6.70;;;4.70;;
16826;SDS011;8530;49.540;8.576;2023-04-02T06:01:19;7.83;;;5.00;;
16826;SDS011;8530;49.540;8.576;2023-04-02T06:03:58;5.27;;;4.77;;
16826;SDS011;8530;49.540;8.576;2023-04-02T06:06:44;4.60;;;4.20;;
16826;SDS011;8530;49.540;8.576;2023-04-02T06:09:16;4.50;;;4.10;;
16826;SDS011;8530;49.540;8.576;2023-04-02T06:11:49;6.10;;;4.10;;
16826;SDS011;8530;49.540;8.576;2023-04-02T06:14:19;5.40;;;4.07;;
16826;SDS011;8530;49.540;8.576;2023-04-02T06:16:46;4.80;;;4.30;;
16826;SDS011;8530;49.540;8.576;2023-04-02T06:19:14;4.73;;;4.30;;
16826;SDS011;8530;49.540;8.576;2023-04-02T06:21:46;7.30;;;4.23;;
16826;SDS011;8530;49.540;8.576;2023-04-02T06:24:16;5.50;;;4.47;;
16826;SDS011;8530;49.540;8.576;2023-04-02T06:26:46;4.30;;;3.57;;
16826;SDS011;8530;49.540;8.576;2023-04-02T06:29:23;8.87;;;3.90;;
16826;SDS011;8530;49.540;8.576;2023-04-02T06:31:54;5.47;;;4.17;;
16826;SDS011;8530;49.540;8.576;2023-04-02T06:34:23;5.33;;;4.03;;
16826;SDS011;8530;49.540;8.576;2023-04-02T06:36:53;9.13;;;4.30;;
16826;SDS011;8530;49.540;8.576;2023-04-02T06:39:23;6.10;;;5.30;;
16826;SDS011;8530;49.540;8.576;2023-04-02T06:41:56;4.50;;;4.10;;
16826;SDS011;8530;49.540;8.576;2023-04-02T06:44:27;6.10;;;4.40;;
16826;SDS011;8530;49.540;8.576;2023-04-02T06:46:58;11.30;;;4.97;;
16826;SDS011;8530;49.540;8.576;2023-04-02T06:49:29;5.27;;;4.77;;
16826;SDS011;8530;49.540;8.576;2023-04-02T06:52:00;5.00;;;4.43;;
16826;SDS011;8530;49.540;8.576;2023-04-02T06:54:29;6.83;;;4.93;;
16826;SDS011;8530;49.540;8.576;2023-04-02T06:56:58;6.00;;;4.70;;
16826;SDS011;8530;49.540;8.576;2023-04-02T06:59:24;6.00;;;4.23;;
16826;SDS011;8530;49.540;8.576;2023-04-02T07:01:52;6.77;;;4.47;;
16826;SDS011;8530;49.540;8.576;2023-04-02T07:04:22;5.57;;;4.97;;
16826;SDS011;8530;49.540;8.576;2023-04-02T07:06:50;5.67;;;4.90;;
16826;SDS011;8530;49.540;8.576;2023-04-02T07:09:17;3.93;;;3.50;;
16826;SDS011;8530;49.540;8.576;2023-04-02T07:11:44;5.97;;;4.50;;
16826;SDS011;8530;49.540;8.576;2023-04-02T07:14:12;8.73;;;5.40;;
16826;SDS011;8530;49.540;8.576;2023-04-02T07:16:40;7.90;;;4.80;;
16826;SDS011;8530;49.540;8.576;2023-04-02T07:19:11;4.50;;;4.00;;
16826;SDS011;8530;49.540;8.576;2023-04-02T07:21:42;3.80;;;3.50;;
16826;SDS011;8530;49.540;8.576;2023-04-02T07:24:09;3.30;;;3.00;;
16826;SDS011;8530;49.540;8.576;2023-04-02T07:26:36;4.67;;;3.97;;
16826;SDS011;8530;49.540;8.576;2023-04-02T07:29:05;3.77;;;3.30;;
16826;SDS011;8530;49.540;8.576;2023-04-02T07:31:33;4.67;;;3.50;;
16826;SDS011;8530;49.540;8.576;2023-04-02T07:34:00;6.90;;;3.83;;
16826;SDS011;8530;49.540;8.576;2023-04-02T07:36:27;3.63;;;3.33;;
16826;SDS011;8530;49.540;8.576;2023-04-02T07:38:55;5.10;;;3.57;;
16826;SDS011;8530;49.540;8.576;2023-04-02T07:41:21;4.10;;;3.47;;
16826;SDS011;8530;49.540;8.576;2023-04-02T07:43:48;5.50;;;3.57;;
16826;SDS011;8530;49.540;8.576;2023-04-02T07:46:15;4.30;;;3.67;;
16826;SDS011;8530;49.540;8.576;2023-04-02T07:48:45;6.53;;;3.57;;
16826;SDS011;8530;49.540;8.576;2023-04-02T07:51:14;5.00;;;3.60;;
16826;SDS011;8530;49.540;8.576;2023-04-02T07:53:41;2.80;;;2.50;;
16826;SDS011;8530;49.540;8.576;2023-04-02T07:56:12;4.70;;;3.30;;
16826;SDS011;8530;49.540;8.576;2023-04-02T07:58:40;4.00;;;3.30;;
16826;SDS011;8530;49.540;8.576;2023-04-02T08:01:12;4.10;;;3.70;;
16826;SDS011;8530;49.540;8.576;2023-04-02T08:03:41;6.63;;;5.80;;
16826;SDS011;8530;49.540;8.576;2023-04-02T08:06:09;6.03;;;3.80;;
16826;SDS011;8530;49.540;8.576;2023-04-02T08:08:37;5.40;;;3.40;;
16826;SDS011;8530;49.540;8.576;2023-04-02T08:11:04;5.90;;;4.37;;
16826;SDS011;8530;49.540;8.576;2023-04-02T08:13:31;6.53;;;3.50;;
16826;SDS011;8530;49.540;8.576;2023-04-02T08:15:58;3.73;;;3.43;;
16826;SDS011;8530;49.540;8.576;2023-04-02T08:18:25;3.73;;;3.33;;
16826;SDS011;8530;49.540;8.576;2023-04-02T08:20:52;3.77;;;3.37;;
16826;SDS011;8530;49.540;8.576;2023-04-02T08:26:42;5.47;;;4.93;;
16826;SDS011;8530;49.540;8.576;2023-04-02T08:29:08;5.30;;;4.50;;
16826;SDS011;8530;49.540;8.576;2023-04-02T08:31:35;4.00;;;3.70;;
16826;SDS011;8530;49.540;8.576;2023-04-02T08:34:02;3.70;;;3.23;;
16826;SDS011;8530;49.540;8.576;2023-04-02T08:36:32;5.93;;;4.30;;
16826;SDS011;8530;49.540;8.576;2023-04-02T08:39:02;4.23;;;3.83;;
16826;SDS011;8530;49.540;8.576;2023-04-02T08:41:36;5.10;;;4.60;;
16826;SDS011;8530;49.540;8.576;2023-04-02T08:44:21;4.43;;;3.70;;
16826;SDS011;8530;49.540;8.576;2023-04-02T08:46:59;4.60;;;4.20;;
16826;SDS011;8530;49.540;8.576;2023-04-02T08:49:30;4.07;;;3.77;;
16826;SDS011;8530;49.540;8.576;2023-04-02T08:52:00;5.80;;;4.17;;
16826;SDS011;8530;49.540;8.576;2023-04-02T08:54:29;5.50;;;4.17;;
16826;SDS011;8530;49.540;8.576;2023-04-02T08:57:03;5.30;;;4.80;;
16826;SDS011;8530;49.540;8.576;2023-04-02T08:59:34;4.70;;;4.27;;
16826;SDS011;8530;49.540;8.576;2023-04-02T09:02:18;4.27;;;3.97;;
16826;SDS011;8530;49.540;8.576;2023-04-02T09:04:52;8.10;;;4.20;;
16826;SDS011;8530;49.540;8.576;2023-04-02T09:07:21;4.60;;;4.17;;
16826;SDS011;8530;49.540;8.576;2023-04-02T09:09:48;10.47;;;4.20;;
16826;SDS011;8530;49.540;8.576;2023-04-02T09:12:16;6.27;;;4.33;;
16826;SDS011;8530;49.540;8.576;2023-04-02T09:14:49;5.23;;;4.70;;
16826;SDS011;8530;49.540;8.576;2023-04-02T09:17:30;6.80;;;4.70;;
16826;SDS011;8530;49.540;8.576;2023-04-02T09:19:57;9.50;;;4.33;;
16826;SDS011;8530;49.540;8.576;2023-04-02T09:22:39;4.27;;;3.87;;
16826;SDS011;8530;49.540;8.576;2023-04-02T09:25:11;4.90;;;3.87;;
16826;SDS011;8530;49.540;8.576;2023-04-02T09:27:40;4.23;;;3.83;;
16826;SDS011;8530;49.540;8.576;2023-04-02T09:30:14;4.63;;;3.33;;
16826;SDS011;8530;49.540;8.576;2023-04-02T09:32:55;3.43;;;3.13;;
16826;SDS011;8530;49.540;8.576;2023-04-02T09:35:25;3.40;;;3.10;;
16826;SDS011;8530;49.540;8.576;2023-04-02T09:40:48;2.87;;;2.60;;
16826;SDS011;8530;49.540;8.576;2023-04-02T09:43:16;3.57;;;2.83;;
16826;SDS011;8530;49.540;8.576;2023-04-02T09:45:55;3.93;;;3.47;;
16826;SDS011;8530;49.540;8.576;2023-04-02T09:48:27;4.20;;;2.77;;
16826;SDS011;8530;49.540;8.576;2023-04-02T09:51:05;8.00;;;3.40;;
16826;SDS011;8530;49.540;8.576;2023-04-02T09:53:38;4.03;;;3.20;;
16826;SDS011;8530;49.540;8.576;2023-04-02T09:56:08;6.40;;;3.47;;
16826;SDS011;8530;49.540;8.576;2023-04-02T09:58:38;4.87;;;3.77;;
16826;SDS011;8530;49.540;8.576;2023-04-02T10:01:12;4.07;;;3.60;;
16826;SDS011;8530;49.540;8.576;2023-04-02T10:03:53;3.70;;;2.80;;
16826;SDS011;8530;49.540;8.576;2023-04-02T10:06:20;3.53;;;3.20;;
16826;SDS011;8530;49.540;8.576;2023-04-02T10:08:47;3.40;;;2.93;;
16826;SDS011;8530;49.540;8.576;2023-04-02T10:11:15;3.60;;;3.30;;
16826;SDS011;8530;49.540;8.576;2023-04-02T10:13:47;4.30;;;3.60;;
16826;SDS011;8530;49.540;8.576;2023-04-02T10:16:20;4.00;;;3.53;;
16826;SDS011;8530;49.540;8.576;2023-04-02T10:18:52;3.70;;;2.90;;
16826;SDS011;8530;49.540;8.576;2023-04-02T10:21:23;3.83;;;2.20;;
16826;SDS011;8530;49.540;8.576;2023-04-02T10:23:52;2.40;;;2.20;;
16826;SDS011;8530;49.540;8.576;2023-04-02T10:29:30;2.00;;;1.57;;
16826;SDS011;8530;49.540;8.576;2023-04-02T10:32:14;3.10;;;1.73;;
16826;SDS011;8530;49.540;8.576;2023-04-02T10:34:46;5.67;;;5.13;;
16826;SDS011;8530;49.540;8.576;2023-04-02T10:40:11;1.33;;;1.23;;
16826;SDS011;8530;49.540;8.576;2023-04-02T10:42:42;1.30;;;1.20;;
16826;SDS011;8530;49.540;8.576;2023-04-02T10:45:16;2.10;;;1.23;;
16826;SDS011;8530;49.540;8.576;2023-04-02T10:47:52;1.43;;;1.33;;
16826;SDS011;8530;49.540;8.576;2023-04-02T10:50:30;2.83;;;2.63;;
16826;SDS011;8530;49.540;8.576;2023-04-02T10:53:08;1.70;;;1.60;;
16826;SDS011;8530;49.540;8.576;2023-04-02T10:55:39;2.00;;;1.83;;
16826;SDS011;8530;49.540;8.576;2023-04-02T10:58:12;1.67;;;1.57;;
16826;SDS011;8530;49.540;8.576;2023-04-02T11:00:47;3.10;;;1.50;;
16826;SDS011;8530;49.540;8.576;2023-04-02T11:03:26;1.40;;;1.30;;
16826;SDS011;8530;49.540;8.576;2023-04-02T11:05:59;1.30;;;1.20;;
16826;SDS011;8530;49.540;8.576;2023-04-02T11:08:35;1.30;;;1.20;;
16826;SDS011;8530;49.540;8.576;2023-04-02T11:11:06;1.83;;;1.37;;
16826;SDS011;8530;49.540;8.576;2023-04-02T11:13:39;1.73;;;1.10;;
16826;SDS011;8530;49.540;8.576;2023-04-02T11:16:13;1.40;;;1.30;;
16826;SDS011;8530;49.540;8.576;2023-04-02T11:18:41;1.50;;;1.40;;
16826;SDS011;8530;49.540;8.576;2023-04-02T11:21:36;2.43;;;1.53;;
16826;SDS011;8530;49.540;8.576;2023-04-02T11:24:04;5.97;;;1.80;;
16826;SDS011;8530;49.540;8.576;2023-04-02T11:26:47;1.40;;;1.30;;
16826;SDS011;8530;49.540;8.576;2023-04-02T11:29:16;2.17;;;1.57;;
16826;SDS011;8530;49.540;8.576;2023-04-02T11:31:46;2.20;;;1.80;;
16826;SDS011;8530;49.540;8.576;2023-04-02T11:37:31;2.10;;;1.40;;
16826;SDS011;8530;49.540;8.576;2023-04-02T11:40:00;1.50;;;1.40;;
16826;SDS011;8530;49.540;8.576;2023-04-02T11:42:31;1.23;;;1.13;;
16826;SDS011;8530;49.540;8.576;2023-04-02T11:44:59;1.90;;;1.80;;
16826;SDS011;8530;49.540;8.576;2023-04-02T11:50:52;2.93;;;2.20;;
16826;SDS011;8530;49.540;8.576;2023-04-02T11:53:20;3.93;;;2.13;;
16826;SDS011;8530;49.540;8.576;2023-04-02T11:56:06;3.33;;;2.93;;
16826;SDS011;8530;49.540;8.576;2023-04-02T11:59:00;2.43;;;2.10;;
16826;SDS011;8530;49.540;8.576;2023-04-02T12:01:37;3.00;;;2.50;;
16826;SDS011;8530;49.540;8.576;2023-04-02T12:07:23;1.60;;;1.50;;
16826;SDS011;8530;49.540;8.576;2023-04-02T12:10:18;1.90;;;1.50;;
16826;SDS011;8530;49.540;8.576;2023-04-02T12:12:46;1.67;;;1.57;;
16826;SDS011;8530;49.540;8.576;2023-04-02T12:18:13;2.10;;;1.90;;
16826;SDS011;8530;49.540;8.576;2023-04-02T12:20:47;2.53;;;2.30;;
16826;SDS011;8530;49.540;8.576;2023-04-02T12:23:20;5.27;;;4.47;;
16826;SDS011;8530;49.540;8.576;2023-04-02T12:25:52;2.87;;;1.60;;
16826;SDS011;8530;49.540;8.576;2023-04-02T12:28:23;2.10;;;1.90;;
16826;SDS011;8530;49.540;8.576;2023-04-02T12:31:00;3.30;;;2.20;;
16826;SDS011;8530;49.540;8.576;2023-04-02T12:33:33;4.73;;;2.40;;
16826;SDS011;8530;49.540;8.576;2023-04-02T12:36:02;2.40;;;2.20;;
16826;SDS011;8530;49.540;8.576;2023-04-02T12:38:44;2.90;;;2.70;;
16826;SDS011;8530;49.540;8.576;2023-04-02T12:41:18;3.50;;;2.50;;
16826;SDS011;8530;49.540;8.576;2023-04-02T12:43:55;8.17;;;2.37;;
16826;SDS011;8530;49.540;8.576;2023-04-02T12:46:22;3.60;;;2.03;;
16826;SDS011;8530;49.540;8.576;2023-04-02T12:48:50;6.73;;;3.70;;
16826;SDS011;8530;49.540;8.576;2023-04-02T12:51:17;1.90;;;1.70;;
16826;SDS011;8530;49.540;8.576;2023-04-02T12:53:48;1.80;;;1.70;;
16826;SDS011;8530;49.540;8.576;2023-04-02T12:56:17;3.13;;;1.90;;
16826;SDS011;8530;49.540;8.576;2023-04-02T12:58:45;1.40;;;1.30;;
16826;SDS011;8530;49.540;8.576;2023-04-02T13:01:18;1.40;;;1.30;;
16826;SDS011;8530;49.540;8.576;2023-04-02T13:04:00;2.47;;;1.70;;
16826;SDS011;8530;49.540;8.576;2023-04-02T13:06:28;3.07;;;1.50;;
16826;SDS011;8530;49.540;8.576;2023-04-02T13:08:59;1.30;;;1.20;;
16826;SDS011;8530;49.540;8.576;2023-04-02T13:11:34;1.53;;;1.40;;
16826;SDS011;8530;49.540;8.576;2023-04-02T13:14:02;1.70;;;1.50;;
16826;SDS011;8530;49.540;8.576;2023-04-02T13:16:32;1.40;;;1.30;;
16826;SDS011;8530;49.540;8.576;2023-04-02T13:19:10;1.50;;;1.40;;
16826;SDS011;8530;49.540;8.576;2023-04-02T13:21:49;1.80;;;1.40;;
16826;SDS011;8530;49.540;8.576;2023-04-02T13:24:18;4.13;;;1.90;;
16826;SDS011;8530;49.540;8.576;2023-04-02T13:26:45;1.80;;;1.30;;
16826;SDS011;8530;49.540;8.576;2023-04-02T13:29:18;1.40;;;1.30;;
16826;SDS011;8530;49.540;8.576;2023-04-02T13:31:46;1.90;;;1.70;;
16826;SDS011;8530;49.540;8.576;2023-04-02T13:34:13;1.60;;;1.50;;
16826;SDS011;8530;49.540;8.576;2023-04-02T13:36:40;1.80;;;1.50;;
16826;SDS011;8530;49.540;8.576;2023-04-02T13:39:07;4.50;;;1.97;;
16826;SDS011;8530;49.540;8.576;2023-04-02T13:41:38;1.33;;;1.23;;
16826;SDS011;8530;49.540;8.576;2023-04-02T13:44:11;2.00;;;1.90;;
16826;SDS011;8530;49.540;8.576;2023-04-02T13:46:44;1.97;;;1.83;;
16826;SDS011;8530;49.540;8.576;2023-04-02T13:49:10;2.83;;;1.80;;
16826;SDS011;8530;49.540;8.576;2023-04-02T13:51:37;1.90;;;1.80;;
16826;SDS011;8530;49.540;8.576;2023-04-02T13:54:09;2.40;;;2.20;;
16826;SDS011;8530;49.540;8.576;2023-04-02T13:56:41;1.90;;;1.80;;
16826;SDS011;8530;49.540;8.576;2023-04-02T13:59:07;1.87;;;1.43;;
16826;SDS011;8530;49.540;8.576;2023-04-02T14:01:38;1.50;;;1.40;;
16826;SDS011;8530;49.540;8.576;2023-04-02T14:04:06;3.00;;;2.30;;
16826;SDS011;8530;49.540;8.576;2023-04-02T14:06:41;1.67;;;1.50;;
16826;SDS011;8530;49.540;8.576;2023-04-02T14:09:31;4.27;;;2.50;;
16826;SDS011;8530;49.540;8.576;2023-04-02T14:12:09;1.90;;;1.80;;
16826;SDS011;8530;49.540;8.576;2023-04-02T14:14:50;2.20;;;2.00;;
16826;SDS011;8530;49.540;8.576;2023-04-02T14:17:34;1.83;;;1.63;;
16826;SDS011;8530;49.540;8.576;2023-04-02T14:20:15;2.90;;;1.50;;
16826;SDS011;8530;49.540;8.576;2023-04-02T14:22:54;4.90;;;2.20;;
16826;SDS011;8530;49.540;8.576;2023-04-02T14:25:31;1.53;;;1.43;;
16826;SDS011;8530;49.540;8.576;2023-04-02T14:28:03;1.83;;;1.73;;
16826;SDS011;8530;49.540;8.576;2023-04-02T14:30:39;1.60;;;1.50;;
16826;SDS011;8530;49.540;8.576;2023-04-02T14:33:12;1.60;;;1.50;;
16826;SDS011;8530;49.540;8.576;2023-04-02T14:35:48;3.43;;;2.10;;
16826;SDS011;8530;49.540;8.576;2023-04-02T14:38:20;2.80;;;2.20;;
16826;SDS011;8530;49.540;8.576;2023-04-02T14:40:53;5.20;;;4.40;;
16826;SDS011;8530;49.540;8.576;2023-04-02T14:43:26;2.80;;;2.43;;
16826;SDS011;8530;49.540;8.576;2023-04-02T14:45:58;2.43;;;2.20;;
16826;SDS011;8530;49.540;8.576;2023-04-02T14:48:29;3.53;;;3.23;;
16826;SDS011;8530;49.540;8.576;2023-04-02T14:51:08;1.93;;;1.73;;
16826;SDS011;8530;49.540;8.576;2023-04-02T14:53:41;2.57;;;2.17;;
16826;SDS011;8530;49.540;8.576;2023-04-02T14:56:17;3.30;;;3.00;;
16826;SDS011;8530;49.540;8.576;2023-04-02T14:58:47;2.53;;;1.90;;
16826;SDS011;8530;49.540;8.576;2023-04-02T15:01:19;5.73;;;1.90;;
16826;SDS011;8530;49.540;8.576;2023-04-02T15:03:52;2.70;;;2.27;;
16826;SDS011;8530;49.540;8.576;2023-04-02T15:06:22;1.70;;;1.60;;
16826;SDS011;8530;49.540;8.576;2023-04-02T15:08:53;2.90;;;2.50;;
16826;SDS011;8530;49.540;8.576;2023-04-02T15:11:26;8.00;;;1.97;;
16826;SDS011;8530;49.540;8.576;2023-04-02T15:14:00;2.40;;;2.20;;
16826;SDS011;8530;49.540;8.576;2023-04-02T15:16:31;2.17;;;1.97;;
16826;SDS011;8530;49.540;8.576;2023-04-02T15:19:00;2.80;;;2.60;;
16826;SDS011;8530;49.540;8.576;2023-04-02T15:21:31;3.10;;;2.80;;
16826;SDS011;8530;49.540;8.576;2023-04-02T15:24:08;3.43;;;3.13;;
16826;SDS011;8530;49.540;8.576;2023-04-02T15:26:41;3.37;;;3.07;;
16826;SDS011;8530;49.540;8.576;2023-04-02T15:29:20;3.20;;;2.80;;
16826;SDS011;8530;49.540;8.576;2023-04-02T15:31:53;3.50;;;3.20;;
16826;SDS011;8530;49.540;8.576;2023-04-02T15:34:25;3.63;;;3.30;;
16826;SDS011;8530;49.540;8.576;2023-04-02T15:36:59;3.60;;;3.30;;
16826;SDS011;8530;49.540;8.576;2023-04-02T15:39:35;3.23;;;2.93;;
16826;SDS011;8530;49.540;8.576;2023-04-02T15:42:12;5.10;;;4.60;;
16826;SDS011;8530;49.540;8.576;2023-04-02T15:44:45;7.27;;;6.53;;
16826;SDS011;8530;49.540;8.576;2023-04-02T15:47:35;3.37;;;3.07;;
16826;SDS011;8530;49.540;8.576;2023-04-02T15:50:12;4.63;;;4.10;;
16826;SDS011;8530;49.540;8.576;2023-04-02T15:52:53;4.20;;;3.80;;
16826;SDS011;8530;49.540;8.576;2023-04-02T15:55:27;4.13;;;3.83;;
16826;SDS011;8530;49.540;8.576;2023-04-02T15:58:08;4.13;;;3.73;;
16826;SDS011;8530;49.540;8.576;2023-04-02T16:00:47;5.30;;;4.70;;
16826;SDS011;8530;49.540;8.576;2023-04-02T16:03:32;5.40;;;4.90;;
16826;SDS011;8530;49.540;8.576;2023-04-02T16:06:13;4.77;;;4.37;;
16826;SDS011;8530;49.540;8.576;2023-04-02T16:11:47;7.37;;;4.90;;
16826;SDS011;8530;49.540;8.576;2023-04-02T16:14:22;6.20;;;5.60;;